Cap Lara — SXBW — position and weather

sailwx.info

Track history (hours):
 
Tides and Currents Weather Stations Pressure Air Temp Water Temp Dewpoint Dewpoint Depression Visibility Wind Speed Wind Dir Waves Ship Positions

Cap Lara

Last reported at 2018-Feb-25 14:47 UTC. Time now 2018-Feb-25 21:08 UTC.
Position N 36°40' W 023°33'.

Length 274 m; draft 15.7 m.

Type: Tanker. MMSI: 240592000.

Date/timePositionNaut miles runAvg speedWind from/ knotsBaromVisibWave heightAir tempDewpointWater temp
2018-Feb-25 14:47N 36°40' W 023°33'412.0
2018-Feb-25 14:27N 36°40' W 023°38'512.1
2018-Feb-25 14:00N 36°40' W 023°44'612.0
2018-Feb-25 13:30N 36°40' W 023°52'611.9
2018-Feb-25 13:00N 36°40' W 023°60'611.8
2018-Feb-25 12:30N 36°40' W 024°07'611.7
2018-Feb-25 12:00N 36°39' W 024°14'611.7
2018-Feb-25 11:30N 36°39' W 024°21'612.0
2018-Feb-25 11:00N 36°40' W 024°29'611.9
2018-Feb-25 10:30N 36°40' W 024°36'612.0
2018-Feb-25 10:01N 36°40' W 024°44'611.7
2018-Feb-25 09:30N 36°40' W 024°51'611.7
2018-Feb-25 09:00N 36°40' W 024°58'611.7
2018-Feb-25 08:31N 36°40' W 025°06'611.8
2018-Feb-25 08:00N 36°40' W 025°13'611.9
2018-Feb-25 07:30N 36°40' W 025°20'612.2
2018-Feb-25 07:00N 36°40' W 025°28'612.4
2018-Feb-25 06:30N 36°40' W 025°36'612.1
2018-Feb-25 06:00N 36°40' W 025°43'611.9
2018-Feb-25 05:30N 36°40' W 025°51'611.9
2018-Feb-25 05:01N 36°40' W 025°58'612.0
2018-Feb-25 04:31N 36°40' W 026°06'612.0
2018-Feb-25 03:59N 36°40' W 026°13'611.8
2018-Feb-25 03:30N 36°40' W 026°21'611.9
2018-Feb-25 03:00N 36°40' W 026°28'612.2
2018-Feb-25 02:29N 36°40' W 026°36'  
Track history (hours):
 
Tides and Currents Weather Stations Pressure Air Temp Water Temp Dewpoint Dewpoint Depression Visibility Wind Speed Wind Dir Waves Ship Positions

Cap Lara

Last reported at 2018-Feb-25 14:47 UTC. Time now 2018-Feb-25 21:08 UTC.
Position N 36°40' W 023°33'.

Length 274 m; draft 15.7 m.

Type: Tanker. MMSI: 240592000.

Date/timePositionNaut miles runAvg speedWind from/ knotsBaromVisibWave heightAir tempDewpointWater temp
2018-Feb-25 14:47N 36°40' W 023°33'412.0
2018-Feb-25 14:27N 36°40' W 023°38'512.1
2018-Feb-25 14:00N 36°40' W 023°44'612.0
2018-Feb-25 13:30N 36°40' W 023°52'611.9
2018-Feb-25 13:00N 36°40' W 023°60'611.8
2018-Feb-25 12:30N 36°40' W 024°07'611.7
2018-Feb-25 12:00N 36°39' W 024°14'611.7
2018-Feb-25 11:30N 36°39' W 024°21'612.0
2018-Feb-25 11:00N 36°40' W 024°29'611.9
2018-Feb-25 10:30N 36°40' W 024°36'612.0
2018-Feb-25 10:01N 36°40' W 024°44'611.7
2018-Feb-25 09:30N 36°40' W 024°51'611.7
2018-Feb-25 09:00N 36°40' W 024°58'611.7
2018-Feb-25 08:31N 36°40' W 025°06'611.8
2018-Feb-25 08:00N 36°40' W 025°13'611.9
2018-Feb-25 07:30N 36°40' W 025°20'612.2
2018-Feb-25 07:00N 36°40' W 025°28'612.4
2018-Feb-25 06:30N 36°40' W 025°36'612.1
2018-Feb-25 06:00N 36°40' W 025°43'611.9
2018-Feb-25 05:30N 36°40' W 025°51'611.9
2018-Feb-25 05:01N 36°40' W 025°58'612.0
2018-Feb-25 04:31N 36°40' W 026°06'612.0
2018-Feb-25 03:59N 36°40' W 026°13'611.8
2018-Feb-25 03:30N 36°40' W 026°21'611.9
2018-Feb-25 03:00N 36°40' W 026°28'612.2
2018-Feb-25 02:29N 36°40' W 026°36'  

Dump ship's entire track history